Time;durP1;ratioP1;P1;durP2;ratioP2;P2;SDS_P1;SDS_P2;PMS_P1;PMS_P2;Temp;Humidity;BMP_temperature;BMP_pressure;BME280_temperature;BME280_humidity;BME280_pressure;Samples;Min_cycle;Max_cycle;Signal;HPM_P1;HPM_P2
2021/08/21 00:01:42;;;;;;;9.45;5.45;;;18.80;99.90;;;;;;4841024;29;20406;-74
2021/08/21 00:04:09;;;;;;;13.85;5.25;;;18.80;99.90;;;;;;4842010;29;20124;-74
2021/08/21 00:06:35;;;;;;;13.27;5.22;;;18.80;99.90;;;;;;4823347;29;20427;-74
2021/08/21 00:09:01;;;;;;;9.32;5.60;;;18.80;99.90;;;;;;4841527;29;20122;-74
2021/08/21 00:11:27;;;;;;;10.13;5.18;;;18.90;99.90;;;;;;4840598;29;20508;-74
2021/08/21 00:13:53;;;;;;;9.13;5.30;;;18.90;99.90;;;;;;4842340;29;20050;-74
2021/08/21 00:16:18;;;;;;;10.25;4.97;;;18.70;99.90;;;;;;4840650;29;20037;-73
2021/08/21 00:18:44;;;;;;;9.10;4.85;;;18.60;99.90;;;;;;4840570;29;20046;-74
2021/08/21 00:21:13;;;;;;;9.63;4.97;;;18.60;99.90;;;;;;4841059;29;20042;-74
2021/08/21 00:23:42;;;;;;;11.20;5.32;;;18.60;99.90;;;;;;4853066;29;20057;-74
2021/08/21 00:26:08;;;;;;;7.75;4.75;;;18.60;99.90;;;;;;4859478;29;20505;-73
2021/08/21 00:28:33;;;;;;;9.75;5.10;;;18.60;99.90;;;;;;4848263;29;20068;-74
2021/08/21 00:30:59;;;;;;;7.40;4.80;;;18.60;99.90;;;;;;4841022;29;20030;-74
2021/08/21 00:33:25;;;;;;;7.95;5.22;;;18.60;99.90;;;;;;4840169;29;20047;-74
2021/08/21 00:35:50;;;;;;;8.57;5.72;;;18.60;99.90;;;;;;4840804;29;20068;-73
2021/08/21 00:38:16;;;;;;;8.68;4.63;;;18.60;99.90;;;;;;4839642;29;20042;-74
2021/08/21 00:40:42;;;;;;;10.57;5.00;;;18.50;99.90;;;;;;4840949;29;20045;-74
2021/08/21 00:43:07;;;;;;;9.98;5.10;;;18.60;99.90;;;;;;4839564;29;20054;-73
2021/08/21 00:45:33;;;;;;;9.82;5.18;;;18.60;99.90;;;;;;4840335;29;20034;-73
2021/08/21 00:48:00;;;;;;;8.48;4.53;;;18.50;99.90;;;;;;4839112;29;20044;-74
2021/08/21 00:50:26;;;;;;;9.48;5.20;;;18.50;99.90;;;;;;4840230;29;20058;-74
2021/08/21 00:52:52;;;;;;;9.85;5.13;;;18.60;99.90;;;;;;4875048;29;20052;-73
2021/08/21 00:55:18;;;;;;;10.07;4.32;;;18.60;99.90;;;;;;4843581;29;20057;-74
2021/08/21 00:57:43;;;;;;;8.73;5.03;;;18.50;99.90;;;;;;4857577;29;20060;-73
2021/08/21 01:00:10;;;;;;;9.02;4.32;;;18.40;99.90;;;;;;4858071;29;20564;-74
2021/08/21 01:02:36;;;;;;;7.40;4.25;;;18.60;99.90;;;;;;4858618;29;20574;-73
2021/08/21 01:05:05;;;;;;;7.90;5.03;;;18.50;99.90;;;;;;4853498;29;20034;-74
2021/08/21 01:07:35;;;;;;;8.32;5.22;;;18.40;99.90;;;;;;4840181;29;20096;-74
2021/08/21 01:10:06;;;;;;;8.57;4.15;;;18.40;99.90;;;;;;4892741;23;20053;-74
2021/08/21 01:12:32;;;;;;;9.05;4.55;;;18.40;99.90;;;;;;4876547;29;20040;-74
2021/08/21 01:14:58;;;;;;;8.38;4.78;;;18.50;99.90;;;;;;4876817;29;20029;-74
2021/08/21 01:17:25;;;;;;;9.43;4.45;;;18.50;99.90;;;;;;4882931;29;20068;-74
2021/08/21 01:19:51;;;;;;;7.68;4.75;;;18.40;99.90;;;;;;4895566;29;20120;-74
2021/08/21 01:22:20;;;;;;;8.80;4.80;;;18.40;99.90;;;;;;4895361;29;20032;-74
2021/08/21 01:24:47;;;;;;;7.18;4.20;;;18.40;99.90;;;;;;4892791;29;20048;-74
2021/08/21 01:27:18;;;;;;;9.80;4.65;;;18.40;99.90;;;;;;4884387;29;20089;-74
2021/08/21 01:29:44;;;;;;;9.03;4.17;;;18.40;99.90;;;;;;4887682;29;20845;-74
2021/08/21 01:32:09;;;;;;;6.68;3.47;;;18.40;99.90;;;;;;4895083;29;20068;-74
2021/08/21 01:34:35;;;;;;;8.27;4.43;;;18.10;99.90;;;;;;4893803;29;20108;-74
2021/08/21 01:37:01;;;;;;;7.82;4.60;;;18.20;99.90;;;;;;4884170;29;20036;-73
2021/08/21 01:39:26;;;;;;;8.77;4.78;;;18.20;99.90;;;;;;4883367;29;20214;-74
2021/08/21 01:41:52;;;;;;;8.95;4.78;;;18.20;99.90;;;;;;4879975;29;20116;-74
2021/08/21 01:44:18;;;;;;;11.25;4.93;;;18.30;99.90;;;;;;4880097;29;20049;-74
2021/08/21 01:46:48;;;;;;;7.32;4.15;;;18.30;99.90;;;;;;4876086;29;20037;-74
2021/08/21 01:49:16;;;;;;;6.80;4.10;;;18.20;99.90;;;;;;4881999;29;20041;-74
2021/08/21 01:51:43;;;;;;;8.23;4.72;;;18.20;99.90;;;;;;4895469;29;20033;-74
2021/08/21 01:54:27;;;;;;;6.22;3.78;;;18.30;99.90;;;;;;4894749;29;20409;-74
2021/08/21 01:56:56;;;;;;;6.10;3.88;;;18.30;99.90;;;;;;4895239;29;20052;-73
2021/08/21 01:59:49;;;;;;;7.43;4.05;;;18.10;99.90;;;;;;4888820;29;20543;-74
2021/08/21 02:02:19;;;;;;;6.88;3.75;;;18.10;99.90;;;;;;4889748;29;20040;-74
2021/08/21 02:04:45;;;;;;;8.45;3.72;;;18.00;99.90;;;;;;4887417;29;20047;-74
2021/08/21 02:07:11;;;;;;;9.13;4.13;;;18.10;99.90;;;;;;4875923;29;20120;-74
2021/08/21 02:09:37;;;;;;;8.38;4.05;;;18.10;99.90;;;;;;4883531;29;20135;-74
2021/08/21 02:12:05;;;;;;;6.63;4.07;;;17.90;99.90;;;;;;4881946;29;20092;-74
2021/08/21 02:14:32;;;;;;;7.40;4.75;;;18.10;99.90;;;;;;4876259;29;20132;-74
2021/08/21 02:17:00;;;;;;;6.65;4.10;;;17.90;99.90;;;;;;4894321;29;20056;-73
2021/08/21 02:19:27;;;;;;;9.73;4.60;;;17.90;99.90;;;;;;4893703;29;20068;-74
2021/08/21 02:21:56;;;;;;;8.32;4.22;;;17.80;99.90;;;;;;4887129;29;20052;-74
2021/08/21 02:24:25;;;;;;;7.18;3.65;;;17.80;99.90;;;;;;4894550;29;20666;-74
2021/08/21 02:26:56;;;;;;;7.95;4.15;;;17.90;99.90;;;;;;4891334;29;20045;-73
2021/08/21 02:29:22;;;;;;;8.43;4.78;;;17.80;99.90;;;;;;4894368;29;20052;-73
2021/08/21 02:31:47;;;;;;;7.15;4.07;;;17.80;99.90;;;;;;4878856;29;20544;-73
2021/08/21 02:34:13;;;;;;;8.38;4.38;;;17.90;99.90;;;;;;4875369;29;20128;-73
2021/08/21 02:36:41;;;;;;;7.75;3.75;;;17.80;99.90;;;;;;4874863;29;20492;-74
2021/08/21 02:39:09;;;;;;;6.88;3.75;;;17.70;99.90;;;;;;4875541;29;20049;-73
2021/08/21 02:41:35;;;;;;;6.85;4.30;;;17.80;99.90;;;;;;4884602;29;20791;-73
2021/08/21 02:44:01;;;;;;;8.45;3.83;;;17.90;99.90;;;;;;4894472;29;20088;-74
2021/08/21 02:46:27;;;;;;;6.45;4.18;;;17.90;99.90;;;;;;4892945;29;20032;-73
2021/08/21 02:48:52;;;;;;;7.30;4.20;;;17.60;99.90;;;;;;4875285;29;20045;-74
2021/08/21 02:51:18;;;;;;;7.13;4.03;;;17.70;99.90;;;;;;4886113;29;20041;-74
2021/08/21 02:53:44;;;;;;;7.70;3.80;;;17.50;99.90;;;;;;4876521;29;20120;-73
2021/08/21 02:56:09;;;;;;;8.05;3.53;;;17.50;99.90;;;;;;4877077;29;20084;-73
2021/08/21 02:58:35;;;;;;;7.65;3.97;;;17.50;99.90;;;;;;4893974;29;20092;-74
2021/08/21 03:01:01;;;;;;;6.53;4.00;;;17.50;99.90;;;;;;4892853;29;20044;-73
2021/08/21 03:03:26;;;;;;;8.90;3.35;;;17.50;99.90;;;;;;4874539;29;20041;-74
2021/08/21 03:05:52;;;;;;;7.32;4.20;;;17.40;99.90;;;;;;4874929;29;20501;-74
2021/08/21 03:08:17;;;;;;;9.10;4.53;;;17.40;99.90;;;;;;4889718;29;20051;-73
2021/08/21 03:10:43;;;;;;;7.57;4.00;;;17.20;99.90;;;;;;4893915;29;20067;-73
2021/08/21 03:13:09;;;;;;;7.00;3.55;;;17.10;99.90;;;;;;4892612;29;20052;-73
2021/08/21 03:15:34;;;;;;;6.82;3.88;;;17.10;99.90;;;;;;4895706;29;20531;-74
2021/08/21 03:18:00;;;;;;;10.13;4.55;;;17.20;99.90;;;;;;4892678;29;20044;-74
2021/08/21 03:20:27;;;;;;;8.18;3.90;;;17.30;99.90;;;;;;4878847;29;20051;-73
2021/08/21 03:22:53;;;;;;;5.65;3.63;;;17.20;99.90;;;;;;4881452;29;20560;-74
2021/08/21 03:25:19;;;;;;;6.47;3.65;;;17.10;99.90;;;;;;4878539;29;20153;-74
2021/08/21 03:27:45;;;;;;;7.25;3.88;;;16.90;99.90;;;;;;4877839;29;20041;-73
2021/08/21 03:30:11;;;;;;;7.70;3.85;;;17.00;99.90;;;;;;4878564;29;20061;-74
2021/08/21 03:32:37;;;;;;;7.32;3.70;;;17.00;99.90;;;;;;4878978;29;20049;-73
2021/08/21 03:35:03;;;;;;;8.30;4.10;;;16.80;99.90;;;;;;4897370;29;20079;-73
2021/08/21 03:37:29;;;;;;;11.75;4.63;;;17.00;99.90;;;;;;4896903;29;20532;-74
2021/08/21 03:39:55;;;;;;;6.40;3.75;;;17.10;99.90;;;;;;4895640;29;20047;-73
2021/08/21 03:42:21;;;;;;;6.85;4.15;;;17.00;99.90;;;;;;4896820;29;20168;-73
2021/08/21 03:44:47;;;;;;;6.20;3.80;;;17.10;99.90;;;;;;4896398;29;20044;-73
2021/08/21 03:47:13;;;;;;;7.32;3.83;;;17.10;99.90;;;;;;4896737;29;20040;-73
2021/08/21 03:49:39;;;;;;;6.00;3.30;;;16.90;99.90;;;;;;4896506;29;20048;-73
2021/08/21 03:52:05;;;;;;;5.28;3.00;;;16.90;99.90;;;;;;4884406;29;20041;-74
2021/08/21 03:54:31;;;;;;;6.43;3.88;;;17.00;99.90;;;;;;4888757;29;20060;-73
2021/08/21 03:56:56;;;;;;;8.98;4.00;;;16.90;99.90;;;;;;4893350;29;20044;-73
2021/08/21 03:59:22;;;;;;;9.23;3.92;;;16.80;99.90;;;;;;4885523;29;20048;-73
2021/08/21 04:01:48;;;;;;;7.43;4.07;;;16.80;99.90;;;;;;4896924;29;20077;-73
2021/08/21 04:04:13;;;;;;;7.70;3.80;;;16.80;99.90;;;;;;4895601;29;20127;-74
2021/08/21 04:06:40;;;;;;;6.82;4.00;;;16.80;99.90;;;;;;4896991;29;20032;-73
2021/08/21 04:09:06;;;;;;;7.28;3.65;;;16.80;99.90;;;;;;4893212;29;20049;-73
2021/08/21 04:11:33;;;;;;;8.02;3.80;;;16.90;99.90;;;;;;4878164;29;20037;-74
2021/08/21 04:13:58;;;;;;;7.35;3.63;;;16.90;99.90;;;;;;4877717;29;20056;-73
2021/08/21 04:16:24;;;;;;;6.68;3.70;;;16.90;99.90;;;;;;4877878;29;20033;-74
2021/08/21 04:18:50;;;;;;;8.02;3.80;;;16.80;99.90;;;;;;4878200;29;20041;-74
2021/08/21 04:21:15;;;;;;;9.77;4.50;;;16.60;99.90;;;;;;4894072;29;20192;-73
2021/08/21 04:23:41;;;;;;;6.97;4.00;;;16.60;99.90;;;;;;4897208;29;20056;-74
2021/08/21 04:26:07;;;;;;;11.77;4.47;;;16.70;99.90;;;;;;4881130;29;20051;-74
2021/08/21 04:28:34;;;;;;;9.70;4.20;;;16.70;99.90;;;;;;4886051;29;20052;-73
2021/08/21 04:31:00;;;;;;;9.05;3.70;;;16.60;99.90;;;;;;4883908;29;20516;-74
2021/08/21 04:33:25;;;;;;;7.90;3.95;;;16.50;99.90;;;;;;4877899;29;20049;-74
2021/08/21 04:35:51;;;;;;;6.00;3.50;;;16.60;99.90;;;;;;4882928;29;20099;-74
2021/08/21 04:38:18;;;;;;;7.82;3.78;;;16.60;99.90;;;;;;4884174;29;20817;-74
2021/08/21 04:40:46;;;;;;;11.05;3.97;;;16.50;99.90;;;;;;4895037;29;20051;-74
2021/08/21 04:43:12;;;;;;;15.77;4.18;;;16.60;99.90;;;;;;4896498;29;20076;-73
2021/08/21 04:45:38;;;;;;;9.98;4.20;;;16.50;99.90;;;;;;4887968;29;20120;-73
2021/08/21 04:48:03;;;;;;;10.50;3.97;;;16.50;99.90;;;;;;4877470;29;20085;-74
2021/08/21 04:50:29;;;;;;;6.97;3.78;;;16.50;99.90;;;;;;4892270;29;20059;-73
2021/08/21 04:52:55;;;;;;;8.43;4.22;;;16.60;99.90;;;;;;4889084;29;20053;-74
2021/08/21 04:55:21;;;;;;;9.73;4.22;;;16.50;99.90;;;;;;4889748;29;20503;-73
2021/08/21 04:57:46;;;;;;;7.40;3.70;;;16.50;99.90;;;;;;4895392;29;20049;-73
2021/08/21 05:00:13;;;;;;;7.93;3.83;;;16.50;99.90;;;;;;4894943;29;20040;-74
2021/08/21 05:02:38;;;;;;;6.05;3.40;;;16.40;99.90;;;;;;4885687;29;20080;-74
2021/08/21 05:05:04;;;;;;;9.85;3.70;;;16.50;99.90;;;;;;4895535;29;20137;-74
2021/08/21 05:07:30;;;;;;;6.97;3.90;;;16.60;99.90;;;;;;4886123;29;20479;-73
2021/08/21 05:09:56;;;;;;;6.45;4.20;;;16.60;99.90;;;;;;4893615;29;20080;-73
2021/08/21 05:12:22;;;;;;;9.02;3.67;;;16.60;99.90;;;;;;4892243;29;20075;-74
2021/08/21 05:14:47;;;;;;;10.13;3.60;;;16.60;99.90;;;;;;4877066;29;20083;-74
2021/08/21 05:17:13;;;;;;;6.47;3.70;;;16.60;99.90;;;;;;4890022;29;20045;-73
2021/08/21 05:19:42;;;;;;;8.18;3.60;;;16.60;99.90;;;;;;4895742;29;20045;-74
2021/08/21 05:22:28;;;;;;;6.70;3.72;;;16.70;99.90;;;;;;4895698;29;20040;-74
2021/08/21 05:24:54;;;;;;;8.05;4.00;;;16.60;99.90;;;;;;4876708;29;20397;-73
2021/08/21 05:27:22;;;;;;;6.07;3.22;;;16.50;99.90;;;;;;4876467;29;20037;-74
2021/08/21 05:29:48;;;;;;;8.90;3.85;;;16.50;99.90;;;;;;4876496;29;20049;-74
2021/08/21 05:32:14;;;;;;;6.78;3.90;;;16.70;99.90;;;;;;4890388;29;20092;-74
2021/08/21 05:34:40;;;;;;;6.72;3.10;;;16.70;99.90;;;;;;4891361;29;20047;-74
2021/08/21 05:37:06;;;;;;;6.00;3.50;;;16.80;99.90;;;;;;4895070;29;20044;-73
2021/08/21 05:39:32;;;;;;;6.57;3.08;;;16.70;99.90;;;;;;4894685;29;20053;-74
2021/08/21 05:41:59;;;;;;;10.07;3.40;;;16.70;99.90;;;;;;4891405;29;20385;-74
2021/08/21 05:44:25;;;;;;;8.35;3.83;;;16.70;99.90;;;;;;4876433;29;20041;-74
2021/08/21 05:46:50;;;;;;;7.13;3.78;;;16.90;99.90;;;;;;4875499;29;20044;-74
2021/08/21 05:49:16;;;;;;;7.00;3.40;;;16.90;99.90;;;;;;4876548;29;20048;-73
2021/08/21 05:51:42;;;;;;;7.32;3.97;;;17.00;99.90;;;;;;4875767;29;20033;-73
2021/08/21 05:54:08;;;;;;;8.82;4.28;;;17.40;99.90;;;;;;4876913;29;20041;-74
2021/08/21 05:56:34;;;;;;;9.73;4.03;;;17.60;99.90;;;;;;4886954;29;20044;-74
2021/08/21 05:58:59;;;;;;;7.03;3.83;;;17.70;99.90;;;;;;4895483;29;20040;-74
2021/08/21 06:01:25;;;;;;;10.13;4.05;;;18.00;99.90;;;;;;4887916;29;20052;-73
2021/08/21 06:03:51;;;;;;;9.75;4.07;;;18.00;99.90;;;;;;4876349;29;20477;-74
2021/08/21 06:06:19;;;;;;;6.95;3.95;;;18.10;99.90;;;;;;4875124;29;20033;-74
2021/08/21 06:08:45;;;;;;;6.93;3.75;;;18.20;99.90;;;;;;4875988;29;20053;-74
2021/08/21 06:11:11;;;;;;;6.07;3.53;;;18.30;99.90;;;;;;4879125;29;20503;-73
2021/08/21 06:13:37;;;;;;;12.13;3.47;;;18.40;99.90;;;;;;4887169;29;20080;-73
2021/08/21 06:16:03;;;;;;;8.38;3.78;;;18.60;99.90;;;;;;4882916;29;20089;-74
2021/08/21 06:18:31;;;;;;;6.43;4.15;;;18.70;99.90;;;;;;4888753;29;20064;-74
2021/08/21 06:20:56;;;;;;;7.60;3.85;;;19.00;99.90;;;;;;4883548;29;20075;-74
2021/08/21 06:23:22;;;;;;;13.85;4.50;;;19.10;99.90;;;;;;4887072;29;20064;-74
2021/08/21 06:25:48;;;;;;;6.97;3.90;;;19.20;99.90;;;;;;4886676;29;20071;-74
2021/08/21 06:28:14;;;;;;;7.40;3.50;;;19.40;99.90;;;;;;4883577;29;20079;-74
2021/08/21 06:30:39;;;;;;;7.05;3.47;;;19.50;99.90;;;;;;4892822;29;20048;-74
2021/08/21 06:33:05;;;;;;;6.82;3.58;;;19.70;99.90;;;;;;4885552;29;20049;-74
2021/08/21 06:35:30;;;;;;;8.25;3.35;;;19.80;99.90;;;;;;4885944;29;20139;-74
2021/08/21 06:37:56;;;;;;;6.45;3.60;;;20.00;99.90;;;;;;4890289;29;20056;-74
2021/08/21 06:40:22;;;;;;;7.38;4.43;;;20.20;99.90;;;;;;4887947;29;20120;-74
2021/08/21 06:42:47;;;;;;;5.78;3.83;;;20.10;99.30;;;;;;4866294;29;20049;-74
2021/08/21 06:45:13;;;;;;;6.22;3.63;;;20.20;99.60;;;;;;4885259;29;20083;-74
2021/08/21 06:47:39;;;;;;;7.47;3.67;;;20.40;99.90;;;;;;4874612;29;20077;-73
2021/08/21 06:50:05;;;;;;;5.90;3.33;;;20.50;99.50;;;;;;4871131;29;20052;-74
2021/08/21 06:52:31;;;;;;;7.90;3.97;;;20.70;99.20;;;;;;4868181;29;20691;-74
2021/08/21 06:54:57;;;;;;;5.97;3.65;;;20.80;98.70;;;;;;4867257;29;20038;-74
2021/08/21 06:57:22;;;;;;;7.68;3.50;;;20.90;98.60;;;;;;4870749;29;20069;-73
2021/08/21 06:59:48;;;;;;;7.57;3.92;;;21.00;98.20;;;;;;4870286;29;20037;-74
2021/08/21 07:02:14;;;;;;;8.38;3.85;;;21.00;97.80;;;;;;4868090;29;20037;-74
2021/08/21 07:04:43;;;;;;;6.40;3.20;;;21.00;97.30;;;;;;4870626;29;20072;-73
2021/08/21 07:07:09;;;;;;;6.30;3.55;;;20.90;97.40;;;;;;4870901;29;20123;-73
2021/08/21 07:09:36;;;;;;;9.73;4.00;;;20.90;97.40;;;;;;4874832;29;20416;-74
2021/08/21 07:12:02;;;;;;;9.43;3.75;;;21.10;97.70;;;;;;4868285;29;20037;-74
2021/08/21 07:14:27;;;;;;;6.13;3.47;;;21.20;96.80;;;;;;4870057;29;20087;-74
2021/08/21 07:16:53;;;;;;;8.63;3.70;;;21.40;97.30;;;;;;4867479;29;20056;-74
2021/08/21 07:19:19;;;;;;;6.38;3.40;;;21.40;97.20;;;;;;4864878;29;20059;-74
2021/08/21 07:21:44;;;;;;;9.25;3.45;;;21.50;97.10;;;;;;4873621;29;20466;-74
2021/08/21 07:24:10;;;;;;;6.78;3.33;;;21.60;97.00;;;;;;4874765;29;20487;-74
2021/08/21 07:26:36;;;;;;;6.13;3.80;;;21.80;96.50;;;;;;4868575;29;20080;-74
2021/08/21 07:29:02;;;;;;;6.07;3.35;;;22.00;96.50;;;;;;4867453;29;20042;-74
2021/08/21 07:31:27;;;;;;;9.38;3.42;;;22.30;96.40;;;;;;4867537;29;20085;-74
2021/08/21 07:33:53;;;;;;;8.38;3.63;;;22.30;96.20;;;;;;4857479;29;20037;-74
2021/08/21 07:36:19;;;;;;;8.63;3.95;;;22.20;96.40;;;;;;4870953;29;20062;-76
2021/08/21 07:38:45;;;;;;;5.72;3.10;;;22.60;95.90;;;;;;4865048;29;20033;-76
2021/08/21 07:41:11;;;;;;;5.60;3.45;;;22.90;95.70;;;;;;4873336;29;20121;-74
2021/08/21 07:43:37;;;;;;;8.55;3.95;;;23.10;95.60;;;;;;4872793;29;20575;-75
2021/08/21 07:46:03;;;;;;;9.32;3.33;;;23.20;95.10;;;;;;4868977;29;20277;-75
2021/08/21 07:48:28;;;;;;;7.90;3.20;;;23.20;94.10;;;;;;4871553;29;20053;-74
2021/08/21 07:50:54;;;;;;;6.60;3.25;;;23.20;93.70;;;;;;4870322;29;20057;-75
2021/08/21 07:53:20;;;;;;;9.77;3.30;;;23.20;93.50;;;;;;4870448;29;20048;-74
2021/08/21 07:55:45;;;;;;;6.45;3.28;;;23.00;93.80;;;;;;4871725;29;20505;-75
2021/08/21 07:58:11;;;;;;;8.18;3.15;;;23.00;93.80;;;;;;4872706;29;20052;-74
2021/08/21 08:00:37;;;;;;;11.23;3.42;;;23.10;94.20;;;;;;4877368;29;20080;-74
2021/08/21 08:03:02;;;;;;;5.45;3.35;;;23.20;94.80;;;;;;4878648;29;20124;-74
2021/08/21 08:05:28;;;;;;;5.47;3.50;;;23.40;94.50;;;;;;4875959;29;20041;-74
2021/08/21 08:07:54;;;;;;;6.93;3.70;;;23.40;95.10;;;;;;4875794;29;20039;-74
2021/08/21 08:10:19;;;;;;;5.18;3.13;;;23.20;95.00;;;;;;4874794;29;20049;-74
2021/08/21 08:12:45;;;;;;;9.35;3.75;;;23.30;93.90;;;;;;4870165;29;20847;-74
2021/08/21 08:15:11;;;;;;;9.57;3.80;;;23.80;94.00;;;;;;4875062;29;20597;-73
2021/08/21 08:17:37;;;;;;;6.20;3.00;;;24.10;94.00;;;;;;4874237;29;20053;-73
2021/08/21 08:20:06;;;;;;;7.15;3.38;;;24.00;93.10;;;;;;4869185;29;20723;-74
2021/08/21 08:22:32;;;;;;;8.20;3.17;;;23.90;92.50;;;;;;4872788;29;20097;-74
2021/08/21 08:24:57;;;;;;;5.45;3.33;;;23.80;92.70;;;;;;4874895;29;20045;-73
2021/08/21 08:27:23;;;;;;;6.18;3.30;;;23.70;92.80;;;;;;4875706;29;20825;-73
2021/08/21 08:29:49;;;;;;;5.57;3.30;;;23.50;93.70;;;;;;4871036;29;20124;-74
2021/08/21 08:32:14;;;;;;;7.25;3.13;;;23.50;94.00;;;;;;4875447;29;20150;-74
2021/08/21 08:34:40;;;;;;;7.57;3.35;;;23.60;94.40;;;;;;4870450;29;20048;-74
2021/08/21 08:37:09;;;;;;;6.55;3.08;;;23.90;94.20;;;;;;4875825;29;20458;-74
2021/08/21 08:39:36;;;;;;;6.97;3.00;;;24.20;93.80;;;;;;4870829;29;20729;-74
2021/08/21 08:42:02;;;;;;;5.65;3.35;;;24.40;93.30;;;;;;4865773;29;20489;-74
2021/08/21 08:44:31;;;;;;;8.18;3.40;;;24.50;93.40;;;;;;4862598;29;20125;-74
2021/08/21 08:46:58;;;;;;;5.82;3.05;;;24.40;93.00;;;;;;4872736;29;20029;-74
2021/08/21 08:49:24;;;;;;;6.95;3.10;;;24.60;93.00;;;;;;4867378;29;20055;-74
2021/08/21 08:51:50;;;;;;;6.47;3.42;;;24.30;93.30;;;;;;4870348;29;20178;-74
2021/08/21 08:54:16;;;;;;;6.82;3.38;;;24.70;93.90;;;;;;4872367;29;20147;-74
2021/08/21 08:56:41;;;;;;;6.72;3.38;;;24.80;91.90;;;;;;4875399;29;20037;-74
2021/08/21 08:59:07;;;;;;;5.43;2.75;;;25.00;91.90;;;;;;4872497;29;20089;-74
2021/08/21 09:01:32;;;;;;;4.32;2.83;;;25.30;92.70;;;;;;4875581;29;20359;-75
2021/08/21 09:04:17;;;;;;;6.45;3.10;;;25.50;91.80;;;;;;4874920;29;20052;-74
2021/08/21 09:06:44;;;;;;;5.95;2.70;;;25.40;92.00;;;;;;4871330;29;20520;-74
2021/08/21 09:09:14;;;;;;;5.97;3.33;;;25.30;91.40;;;;;;4873626;29;20108;-74
2021/08/21 09:11:43;;;;;;;5.93;2.95;;;25.60;92.20;;;;;;4872612;29;20765;-75
2021/08/21 09:14:28;;;;;;;6.72;3.50;;;25.90;92.50;;;;;;4862380;29;20053;-74
2021/08/21 09:17:13;;;;;;;6.70;2.95;;;26.20;91.70;;;;;;4869695;29;20042;-74
2021/08/21 09:19:39;;;;;;;6.68;2.67;;;26.30;91.20;;;;;;4866463;29;20060;-74
2021/08/21 09:22:07;;;;;;;5.00;2.55;;;26.20;90.70;;;;;;4875015;29;20060;-75
2021/08/21 09:24:36;;;;;;;6.93;3.15;;;26.10;90.60;;;;;;4871238;29;20501;-74
2021/08/21 09:27:15;;;;;;;7.15;2.55;;;26.30;90.50;;;;;;4869609;29;20039;-74
2021/08/21 09:29:42;;;;;;;6.88;3.22;;;25.90;90.00;;;;;;4869008;29;20063;-74
2021/08/21 09:32:08;;;;;;;5.28;3.00;;;26.10;90.60;;;;;;4873580;29;20044;-75
2021/08/21 09:34:35;;;;;;;6.57;3.55;;;26.50;90.90;;;;;;4869664;29;20051;-74
2021/08/21 09:37:01;;;;;;;7.75;3.22;;;26.50;91.10;;;;;;4869703;29;20113;-74
2021/08/21 09:39:39;;;;;;;6.30;3.10;;;26.40;90.90;;;;;;4871082;29;20040;-75
2021/08/21 09:42:09;;;;;;;6.40;2.83;;;26.00;90.80;;;;;;4865474;29;20146;-75
2021/08/21 09:44:40;;;;;;;6.13;3.20;;;25.90;91.20;;;;;;4871027;29;20052;-74
2021/08/21 09:47:23;;;;;;;4.75;3.13;;;25.60;91.10;;;;;;4871355;29;20061;-74
2021/08/21 09:49:50;;;;;;;7.75;3.22;;;26.00;92.00;;;;;;4872763;29;20438;-74
2021/08/21 09:52:18;;;;;;;5.25;3.13;;;26.10;91.50;;;;;;4870910;29;20104;-74
2021/08/21 09:55:00;;;;;;;7.10;3.45;;;26.40;92.00;;;;;;4868616;29;20560;-74
2021/08/21 09:57:26;;;;;;;6.25;3.60;;;26.90;91.70;;;;;;4870345;29;20030;-74
2021/08/21 09:59:57;;;;;;;6.45;3.22;;;27.20;91.20;;;;;;4872809;29;20037;-74
2021/08/21 10:02:24;;;;;;;4.78;3.00;;;27.30;90.60;;;;;;4872316;29;20041;-74
2021/08/21 10:04:50;;;;;;;5.22;3.13;;;27.10;90.70;;;;;;4870450;29;20052;-74
2021/08/21 10:07:19;;;;;;;6.22;3.33;;;26.60;90.30;;;;;;4870360;29;20033;-74
2021/08/21 10:09:46;;;;;;;6.07;3.40;;;26.70;90.30;;;;;;4868862;29;20222;-74
2021/08/21 10:12:13;;;;;;;7.60;3.55;;;26.20;90.20;;;;;;4869536;29;20039;-74
2021/08/21 10:14:45;;;;;;;8.95;3.40;;;26.60;91.00;;;;;;4872285;29;20056;-74
2021/08/21 10:17:15;;;;;;;6.10;3.08;;;26.80;90.50;;;;;;4871541;29;20411;-74
2021/08/21 10:19:41;;;;;;;6.88;3.83;;;27.20;89.60;;;;;;4870726;29;20052;-74
2021/08/21 10:22:10;;;;;;;7.43;3.25;;;27.30;89.10;;;;;;4870268;29;20037;-74
2021/08/21 10:24:41;;;;;;;7.28;3.38;;;27.50;90.30;;;;;;4869019;29;20041;-74
2021/08/21 10:27:22;;;;;;;7.15;3.30;;;27.60;88.50;;;;;;4870833;29;20026;-74
2021/08/21 10:30:08;;;;;;;8.52;3.50;;;27.50;89.30;;;;;;4872244;29;20882;-74
2021/08/21 10:33:00;;;;;;;7.85;3.53;;;27.30;88.30;;;;;;4871701;29;20042;-75
2021/08/21 10:35:49;;;;;;;5.18;3.35;;;27.10;89.90;;;;;;4861938;29;20067;-74
2021/08/21 10:38:33;;;;;;;7.68;3.78;;;26.90;90.20;;;;;;4870602;29;20144;-74
2021/08/21 10:41:07;;;;;;;8.88;3.10;;;26.60;89.40;;;;;;4870930;29;20124;-74
2021/08/21 10:43:50;;;;;;;5.72;3.58;;;26.40;90.60;;;;;;4870662;29;20133;-74
2021/08/21 10:46:30;;;;;;;7.95;3.53;;;26.10;90.10;;;;;;4872124;29;20036;-74
2021/08/21 10:48:58;;;;;;;6.93;3.72;;;26.50;90.60;;;;;;4868786;29;20051;-74
2021/08/21 10:51:29;;;;;;;6.82;3.25;;;26.80;91.20;;;;;;4866542;29;20059;-74
2021/08/21 10:53:55;;;;;;;6.90;3.17;;;27.30;90.20;;;;;;4872185;29;20053;-74
2021/08/21 10:56:38;;;;;;;7.63;3.42;;;27.70;89.00;;;;;;4873436;29;20049;-74
2021/08/21 10:59:04;;;;;;;7.53;3.42;;;28.00;89.70;;;;;;4863138;29;20036;-74
2021/08/21 11:01:30;;;;;;;7.63;2.78;;;27.90;87.50;;;;;;4869076;29;20049;-74
2021/08/21 11:03:55;;;;;;;5.95;3.30;;;28.30;88.30;;;;;;4869046;29;20042;-74
2021/08/21 11:06:35;;;;;;;5.95;2.78;;;28.60;86.70;;;;;;4870786;29;20076;-74
2021/08/21 11:09:04;;;;;;;9.10;3.25;;;28.60;86.70;;;;;;4874426;29;20084;-74
2021/08/21 11:11:40;;;;;;;7.30;3.30;;;29.00;86.40;;;;;;4872486;29;20033;-74
2021/08/21 11:14:20;;;;;;;6.25;3.25;;;28.60;85.20;;;;;;4869360;29;20461;-74
2021/08/21 11:16:56;;;;;;;5.30;3.17;;;28.00;84.30;;;;;;4872283;29;20041;-74
2021/08/21 11:19:27;;;;;;;4.60;2.90;;;28.00;83.40;;;;;;4870172;29;20041;-74
2021/08/21 11:22:11;;;;;;;4.63;2.87;;;27.90;85.20;;;;;;4866294;29;20120;-74
2021/08/21 11:24:57;;;;;;;7.60;3.47;;;28.30;87.70;;;;;;4873069;29;20312;-74
2021/08/21 11:27:27;;;;;;;5.57;3.10;;;28.10;87.30;;;;;;4872513;29;20052;-74
2021/08/21 11:30:11;;;;;;;5.47;3.00;;;28.50;88.40;;;;;;4874865;29;20556;-74
2021/08/21 11:32:47;;;;;;;5.22;3.05;;;27.90;87.30;;;;;;4870644;29;20052;-74
2021/08/21 11:35:26;;;;;;;5.50;3.33;;;27.90;88.30;;;;;;4873304;29;20089;-74
2021/08/21 11:37:54;;;;;;;5.13;3.08;;;28.40;90.10;;;;;;4869822;29;20107;-75
2021/08/21 11:40:21;;;;;;;8.05;3.50;;;28.90;90.00;;;;;;4874959;29;20584;-75
2021/08/21 11:42:57;;;;;;;4.53;2.72;;;28.90;88.60;;;;;;4877983;29;20048;-76
2021/08/21 11:45:23;;;;;;;4.28;2.60;;;28.40;87.40;;;;;;4876970;29;20076;-77
2021/08/21 11:47:56;;;;;;;5.22;3.20;;;28.50;88.80;;;;;;4875657;29;20037;-77
2021/08/21 11:50:41;;;;;;;5.35;2.90;;;28.70;88.00;;;;;;4878316;29;20041;-77
2021/08/21 11:53:17;;;;;;;5.70;3.00;;;28.70;87.10;;;;;;4874988;29;20049;-77
2021/08/21 11:55:43;;;;;;;7.82;3.42;;;28.80;87.60;;;;;;4876317;29;20048;-77
2021/08/21 11:58:10;;;;;;;6.00;3.38;;;28.60;86.70;;;;;;4877451;29;20044;-77
2021/08/21 12:00:41;;;;;;;7.03;2.83;;;28.80;85.30;;;;;;4870027;29;20118;-77
2021/08/21 12:03:09;;;;;;;4.68;2.85;;;28.70;86.40;;;;;;4877032;29;20041;-77
2021/08/21 12:05:36;;;;;;;6.50;3.08;;;28.90;86.40;;;;;;4870450;29;20128;-77
2021/08/21 12:08:25;;;;;;;5.25;2.92;;;28.80;85.50;;;;;;4877009;29;20041;-77
2021/08/21 12:10:55;;;;;;;6.07;3.22;;;28.90;85.20;;;;;;4873006;29;20067;-77
2021/08/21 12:13:33;;;;;;;4.50;2.50;;;29.10;86.20;;;;;;4877778;29;20045;-77
2021/08/21 12:16:08;;;;;;;4.13;2.70;;;29.20;85.10;;;;;;4876596;29;20048;-77
2021/08/21 12:18:39;;;;;;;6.15;2.80;;;29.10;84.30;;;;;;4874644;29;20041;-77
2021/08/21 12:21:06;;;;;;;4.05;2.60;;;29.20;85.80;;;;;;4875013;29;20064;-77
2021/08/21 12:23:34;;;;;;;7.55;3.00;;;29.20;84.50;;;;;;4865244;29;20083;-77
2021/08/21 12:26:01;;;;;;;4.72;2.67;;;29.10;81.90;;;;;;4867138;29;20093;-77
2021/08/21 12:28:46;;;;;;;4.75;2.53;;;29.10;81.70;;;;;;4873864;29;20710;-77
2021/08/21 12:31:14;;;;;;;5.45;2.70;;;29.10;83.70;;;;;;4871629;29;20736;-77
2021/08/21 12:33:54;;;;;;;5.90;2.80;;;29.00;82.00;;;;;;4876325;29;20406;-77
2021/08/21 12:36:22;;;;;;;5.63;2.80;;;29.30;83.60;;;;;;4882563;29;20512;-77
2021/08/21 12:39:22;;;;;;;5.30;2.58;;;29.40;83.40;;;;;;4885859;29;20041;-77
2021/08/21 12:42:02;;;;;;;3.78;2.35;;;29.60;82.80;;;;;;4852078;29;20055;-77
2021/08/21 12:44:33;;;;;;;4.22;2.40;;;29.60;81.30;;;;;;4866418;29;20071;-77
2021/08/21 12:47:10;;;;;;;4.20;2.70;;;29.80;81.70;;;;;;4884251;29;20041;-77
2021/08/21 12:49:38;;;;;;;5.45;2.85;;;30.00;81.80;;;;;;4880862;29;20037;-77
2021/08/21 12:52:08;;;;;;;4.03;2.40;;;29.80;79.20;;;;;;4884767;29;20540;-77